createdAt,value
2022-08-03T00:01:49.485Z,0.70
2022-08-03T00:04:16.602Z,0.50
2022-08-03T00:06:43.277Z,0.60
2022-08-03T00:09:10.387Z,0.50
2022-08-03T00:11:38.311Z,0.60
2022-08-03T00:14:06.299Z,0.60
2022-08-03T00:16:33.061Z,0.50
2022-08-03T00:19:00.829Z,0.60
2022-08-03T00:21:28.340Z,0.50
2022-08-03T00:23:56.050Z,0.60
2022-08-03T00:26:22.691Z,0.50
2022-08-03T00:28:49.961Z,0.50
2022-08-03T00:31:23.061Z,0.60
2022-08-03T00:34:04.315Z,0.55
2022-08-03T00:36:30.974Z,0.70
2022-08-03T00:38:57.550Z,0.60
2022-08-03T00:41:24.347Z,0.50
2022-08-03T00:43:51.184Z,0.57
2022-08-03T00:46:21.332Z,0.70
2022-08-03T00:48:49.918Z,0.60
2022-08-03T00:51:16.786Z,0.60
2022-08-03T00:53:43.594Z,0.50
2022-08-03T00:56:14.525Z,0.50
2022-08-03T00:58:41.635Z,0.60
2022-08-03T01:01:08.256Z,0.50
2022-08-03T01:03:35.017Z,0.60
2022-08-03T01:06:18.382Z,0.63
2022-08-03T01:08:53.498Z,0.55
2022-08-03T01:11:29.252Z,0.60
2022-08-03T01:14:21.000Z,0.50
2022-08-03T01:17:02.071Z,0.60
2022-08-03T01:19:40.543Z,0.50
2022-08-03T01:22:37.161Z,0.60
2022-08-03T01:25:33.115Z,0.70
2022-08-03T01:28:19.955Z,0.60
2022-08-03T01:30:47.860Z,0.70
2022-08-03T01:33:26.166Z,0.60
2022-08-03T01:36:13.090Z,0.60
2022-08-03T01:38:44.402Z,0.68
2022-08-03T01:41:17.211Z,0.60
2022-08-03T01:44:27.356Z,0.63
2022-08-03T01:46:38.389Z,0.57
2022-08-03T01:49:09.325Z,0.60
2022-08-03T01:51:58.367Z,0.60
2022-08-03T01:54:27.112Z,0.60
2022-08-03T01:56:56.713Z,0.60
2022-08-03T01:59:26.135Z,0.60
2022-08-03T02:02:27.972Z,0.60
2022-08-03T02:04:43.735Z,0.60
2022-08-03T02:07:11.987Z,0.60
2022-08-03T02:09:41.267Z,0.50
2022-08-03T02:12:12.278Z,0.60
2022-08-03T02:14:41.754Z,0.50
2022-08-03T02:17:09.696Z,0.50
2022-08-03T02:19:37.758Z,0.50
2022-08-03T02:22:08.388Z,0.50
2022-08-03T02:24:35.068Z,0.60
2022-08-03T02:27:05.181Z,0.50
2022-08-03T02:29:39.824Z,0.70
2022-08-03T02:32:11.709Z,0.60
2022-08-03T02:34:42.246Z,0.70
2022-08-03T02:37:11.924Z,0.80
2022-08-03T02:39:41.768Z,0.70
2022-08-03T02:42:12.200Z,0.60
2022-08-03T02:44:41.608Z,0.60
2022-08-03T02:47:11.210Z,0.60
2022-08-03T02:49:50.639Z,0.65
2022-08-03T02:52:21.547Z,0.70
2022-08-03T02:54:51.126Z,0.73
2022-08-03T02:57:20.071Z,0.70
2022-08-03T02:59:47.818Z,0.70
2022-08-03T03:02:16.567Z,0.75
2022-08-03T03:05:53.534Z,0.80
2022-08-03T03:07:34.707Z,0.80
2022-08-03T03:10:19.276Z,0.80
2022-08-03T03:12:47.147Z,0.82
2022-08-03T03:15:13.867Z,0.80
2022-08-03T03:17:43.074Z,0.80
2022-08-03T03:20:10.364Z,0.90
2022-08-03T03:22:38.175Z,0.95
2022-08-03T03:25:07.420Z,0.77
2022-08-03T03:27:34.806Z,0.90
2022-08-03T03:30:02.554Z,0.73
2022-08-03T03:32:29.848Z,0.80
2022-08-03T03:34:59.171Z,0.70
2022-08-03T03:37:27.056Z,0.80
2022-08-03T03:39:54.797Z,0.85
2022-08-03T03:42:21.750Z,0.90
2022-08-03T03:44:48.352Z,0.80
2022-08-03T03:47:15.039Z,0.93
2022-08-03T03:49:44.207Z,0.90
2022-08-03T03:52:11.189Z,0.90
2022-08-03T03:54:45.493Z,0.75
2022-08-03T03:57:13.086Z,1.10
2022-08-03T03:59:43.913Z,0.90
2022-08-03T04:02:12.092Z,0.80
2022-08-03T04:04:57.570Z,0.98
2022-08-03T04:07:44.938Z,1.00
2022-08-03T04:10:40.730Z,0.80
2022-08-03T04:13:10.584Z,0.82
2022-08-03T04:15:39.652Z,0.70
2022-08-03T04:18:09.704Z,0.80
2022-08-03T04:23:13.690Z,0.60
2022-08-03T04:25:43.927Z,0.70
2022-08-03T04:28:30.543Z,0.60
2022-08-03T04:30:59.878Z,0.70
2022-08-03T04:33:29.641Z,0.70
2022-08-03T04:36:02.812Z,0.60
2022-08-03T04:38:32.842Z,0.60
2022-08-03T04:41:00.912Z,0.60
2022-08-03T04:43:28.282Z,0.43
2022-08-03T04:45:55.861Z,0.60
2022-08-03T04:48:22.884Z,0.63
2022-08-03T04:50:53.796Z,0.50
2022-08-03T04:53:21.178Z,0.50
2022-08-03T04:55:48.305Z,1.38
2022-08-03T04:58:14.823Z,1.30
2022-08-03T05:00:42.229Z,0.40
2022-08-03T05:03:19.486Z,0.50
2022-08-03T05:05:50.914Z,0.50
2022-08-03T05:08:20.549Z,0.50
2022-08-03T05:10:55.379Z,0.40
2022-08-03T05:13:25.433Z,1.00
2022-08-03T05:15:52.561Z,1.30
2022-08-03T05:18:19.259Z,0.40
2022-08-03T05:20:45.881Z,0.60
2022-08-03T05:23:12.504Z,0.60
2022-08-03T05:25:39.427Z,0.40
2022-08-03T05:28:06.127Z,0.50
2022-08-03T05:30:34.195Z,0.40
2022-08-03T05:33:02.662Z,0.40
2022-08-03T05:36:00.903Z,0.38
2022-08-03T05:38:28.283Z,0.40
2022-08-03T05:41:20.939Z,0.40
2022-08-03T05:43:46.815Z,0.35
2022-08-03T05:46:13.551Z,0.32
2022-08-03T05:48:41.203Z,0.30
2022-08-03T05:51:11.403Z,0.30
2022-08-03T05:53:43.231Z,0.40
2022-08-03T05:56:14.958Z,0.52
2022-08-03T05:58:44.410Z,0.35
2022-08-03T06:01:11.152Z,0.30
2022-08-03T06:03:37.807Z,0.30
2022-08-03T06:06:04.486Z,0.32
2022-08-03T06:08:31.144Z,0.30
2022-08-03T06:10:57.749Z,0.30
2022-08-03T06:13:24.325Z,0.30
2022-08-03T06:15:50.862Z,0.30
2022-08-03T06:18:17.521Z,0.28
2022-08-03T06:20:44.072Z,0.20
2022-08-03T06:23:16.173Z,0.40
2022-08-03T06:25:44.810Z,0.30
2022-08-03T06:28:35.335Z,0.40
2022-08-03T06:31:01.005Z,0.70
2022-08-03T06:34:31.457Z,0.40
2022-08-03T06:36:15.150Z,0.30
2022-08-03T06:38:41.749Z,0.40
2022-08-03T06:41:08.502Z,0.30
2022-08-03T06:43:37.887Z,0.40
2022-08-03T06:46:05.731Z,0.38
2022-08-03T06:48:32.643Z,0.30
2022-08-03T06:50:59.406Z,0.50
2022-08-03T06:53:26.344Z,0.30
2022-08-03T06:55:55.056Z,0.60
2022-08-03T06:58:22.773Z,0.50
2022-08-03T07:00:49.367Z,0.50
2022-08-03T07:03:16.541Z,0.30
2022-08-03T07:05:43.955Z,0.30
2022-08-03T07:08:10.715Z,0.30
2022-08-03T07:10:37.382Z,0.40
2022-08-03T07:13:04.826Z,0.70
2022-08-03T07:15:38.312Z,0.40
2022-08-03T07:18:28.275Z,0.30
2022-08-03T07:20:57.956Z,1.05
2022-08-03T07:23:25.491Z,2.55
2022-08-03T07:25:52.198Z,0.38
2022-08-03T07:28:19.454Z,3.55
2022-08-03T07:30:46.021Z,9.20
2022-08-03T07:33:12.639Z,2.08
2022-08-03T07:35:39.765Z,1.75
2022-08-03T07:38:06.467Z,0.85
2022-08-03T07:40:33.283Z,1.52
2022-08-03T07:43:00.525Z,6.65
2022-08-03T07:45:27.142Z,0.70
2022-08-03T07:47:54.388Z,0.95
2022-08-03T07:50:22.388Z,0.70
2022-08-03T07:52:50.096Z,0.30
2022-08-03T07:55:18.691Z,0.70
2022-08-03T07:57:45.346Z,0.60
2022-08-03T08:00:17.751Z,0.60
2022-08-03T08:02:45.132Z,0.20
2022-08-03T08:05:12.561Z,0.50
2022-08-03T08:07:40.107Z,2.25
2022-08-03T08:10:10.302Z,0.77
2022-08-03T08:12:38.741Z,2.08
2022-08-03T08:15:07.193Z,0.30
2022-08-03T08:17:44.836Z,0.30
2022-08-03T08:20:15.748Z,0.47
2022-08-03T08:22:47.796Z,0.70
2022-08-03T08:25:17.076Z,0.38
2022-08-03T08:28:29.784Z,0.95
2022-08-03T08:30:35.330Z,0.40
2022-08-03T08:33:02.229Z,0.90
2022-08-03T08:35:28.965Z,0.40
2022-08-03T08:37:55.558Z,0.30
2022-08-03T08:40:23.306Z,0.40
2022-08-03T08:42:59.038Z,0.30
2022-08-03T08:45:26.503Z,0.40
2022-08-03T08:48:00.181Z,0.38
2022-08-03T08:50:29.914Z,0.50
2022-08-03T08:53:01.975Z,0.40
2022-08-03T08:55:29.570Z,0.40
2022-08-03T08:58:19.812Z,0.40
2022-08-03T09:00:48.478Z,0.30
2022-08-03T09:03:22.754Z,0.38
2022-08-03T09:05:59.264Z,0.30
2022-08-03T09:08:26.193Z,0.30
2022-08-03T09:10:52.884Z,0.30
2022-08-03T09:13:19.699Z,0.20
2022-08-03T09:16:00.868Z,0.30
2022-08-03T09:18:32.731Z,0.30
2022-08-03T09:21:32.512Z,0.20
2022-08-03T09:24:03.254Z,0.30
2022-08-03T09:26:31.634Z,0.22
2022-08-03T09:29:15.395Z,0.20
2022-08-03T09:31:46.955Z,0.22
2022-08-03T09:34:16.280Z,0.20
2022-08-03T09:36:46.909Z,0.20
2022-08-03T09:39:40.961Z,0.20
2022-08-03T09:42:23.952Z,0.28
2022-08-03T09:44:52.217Z,0.20
2022-08-03T09:47:45.040Z,0.20
2022-08-03T09:50:12.904Z,0.20
2022-08-03T09:52:50.180Z,0.20
2022-08-03T09:56:34.775Z,0.30
2022-08-03T09:58:11.698Z,0.20
2022-08-03T10:00:54.009Z,0.20
2022-08-03T10:03:20.957Z,0.30
2022-08-03T10:05:47.603Z,0.28
2022-08-03T10:08:19.101Z,0.30
2022-08-03T10:10:47.728Z,0.20
2022-08-03T10:13:16.429Z,0.40
2022-08-03T10:16:23.071Z,0.30
2022-08-03T10:18:30.301Z,0.30
2022-08-03T10:21:04.461Z,0.25
2022-08-03T10:23:35.142Z,0.28
2022-08-03T10:26:07.476Z,0.40
2022-08-03T10:28:38.401Z,0.30
2022-08-03T10:31:10.149Z,0.30
2022-08-03T10:33:51.126Z,0.20
2022-08-03T10:36:22.915Z,0.30
2022-08-03T10:38:53.631Z,0.40
2022-08-03T10:41:22.151Z,0.20
2022-08-03T10:46:21.801Z,0.70
2022-08-03T10:48:50.813Z,0.35
2022-08-03T10:51:17.553Z,0.30
2022-08-03T10:53:54.282Z,0.22
2022-08-03T10:59:46.083Z,0.10
2022-08-03T11:02:15.305Z,0.30
2022-08-03T11:04:44.691Z,1.08
2022-08-03T11:07:17.691Z,0.22
2022-08-03T11:09:48.440Z,0.30
2022-08-03T11:12:31.215Z,0.30
2022-08-03T11:15:05.473Z,0.43
2022-08-03T11:17:33.938Z,0.30
2022-08-03T11:20:13.976Z,0.30
2022-08-03T11:22:54.535Z,0.30
2022-08-03T11:25:53.646Z,0.60
2022-08-03T11:28:28.447Z,0.40
2022-08-03T11:30:55.137Z,0.30
2022-08-03T11:33:39.665Z,0.30
2022-08-03T11:36:06.312Z,0.30
2022-08-03T11:38:32.942Z,0.40
2022-08-03T11:41:02.573Z,0.30
2022-08-03T11:43:34.942Z,0.30
2022-08-03T11:46:02.779Z,0.30
2022-08-03T11:48:43.086Z,0.30
2022-08-03T11:51:29.398Z,0.50
2022-08-03T11:54:01.746Z,0.50
2022-08-03T11:56:43.007Z,0.30
2022-08-03T11:59:18.619Z,0.40
2022-08-03T12:01:47.592Z,0.65
2022-08-03T12:04:16.198Z,0.60
2022-08-03T12:06:58.310Z,0.70
2022-08-03T12:09:24.822Z,0.50
2022-08-03T12:11:59.982Z,0.30
2022-08-03T12:14:48.376Z,0.50
2022-08-03T12:17:16.815Z,0.30
2022-08-03T12:19:44.584Z,0.40
2022-08-03T12:22:11.319Z,0.40
2022-08-03T12:24:46.863Z,0.30
2022-08-03T12:27:24.037Z,0.50
2022-08-03T12:29:58.542Z,0.40
2022-08-03T12:32:27.213Z,0.40
2022-08-03T12:34:54.523Z,0.40
2022-08-03T12:37:23.607Z,0.40
2022-08-03T12:40:01.329Z,0.90
2022-08-03T12:42:36.717Z,0.40
2022-08-03T12:45:22.249Z,0.60
2022-08-03T12:48:14.877Z,0.40
2022-08-03T12:50:41.671Z,0.40
2022-08-03T12:53:10.441Z,0.30
2022-08-03T12:55:57.722Z,0.25
2022-08-03T12:58:34.701Z,0.40
2022-08-03T13:01:10.130Z,0.30
2022-08-03T13:03:49.607Z,0.20
2022-08-03T13:06:20.297Z,0.30
2022-08-03T13:08:48.001Z,0.40
2022-08-03T13:11:57.772Z,0.30
2022-08-03T13:14:20.595Z,0.25
2022-08-03T13:16:49.172Z,0.40
2022-08-03T13:19:16.162Z,0.38
2022-08-03T13:22:04.422Z,0.38
2022-08-03T13:24:31.721Z,0.20
2022-08-03T13:26:59.399Z,0.30
2022-08-03T13:29:26.063Z,0.30
2022-08-03T13:31:52.956Z,0.20
2022-08-03T13:34:23.654Z,0.20
2022-08-03T13:37:10.189Z,0.40
2022-08-03T13:39:58.025Z,0.20
2022-08-03T13:42:23.644Z,0.30
2022-08-03T13:44:50.783Z,0.25
2022-08-03T13:47:17.536Z,0.40
2022-08-03T13:49:59.677Z,0.20
2022-08-03T13:52:31.035Z,0.30
2022-08-03T13:54:57.647Z,0.20
2022-08-03T13:58:02.398Z,0.30
2022-08-03T14:00:12.093Z,0.30
2022-08-03T14:02:38.991Z,0.40
2022-08-03T14:05:06.116Z,0.25
2022-08-03T14:07:32.691Z,0.30
2022-08-03T14:09:59.575Z,0.30
2022-08-03T14:12:26.135Z,0.40
2022-08-03T14:14:52.805Z,0.30
2022-08-03T14:17:19.905Z,0.40
2022-08-03T14:19:53.106Z,0.30
2022-08-03T14:22:21.485Z,0.40
2022-08-03T14:24:49.232Z,0.32
2022-08-03T14:27:16.539Z,0.40
2022-08-03T14:29:43.285Z,0.60
2022-08-03T14:32:13.260Z,0.30
2022-08-03T14:34:40.892Z,0.50
2022-08-03T14:37:07.724Z,0.43
2022-08-03T14:42:21.577Z,0.28
2022-08-03T14:44:48.276Z,0.30
2022-08-03T14:47:14.933Z,0.40
2022-08-03T14:50:33.225Z,0.30
2022-08-03T14:52:28.692Z,0.30
2022-08-03T14:54:55.495Z,0.40
2022-08-03T14:57:22.261Z,0.22
2022-08-03T14:59:55.611Z,0.30
2022-08-03T15:02:25.040Z,0.30
2022-08-03T15:04:55.362Z,0.45
2022-08-03T15:07:22.151Z,0.50
2022-08-03T15:09:48.883Z,0.50
2022-08-03T15:12:15.579Z,0.50
2022-08-03T15:14:42.118Z,0.50
2022-08-03T15:17:08.799Z,0.30
2022-08-03T15:20:00.473Z,0.30
2022-08-03T15:22:24.841Z,0.30
2022-08-03T15:24:52.555Z,0.30
2022-08-03T15:27:19.389Z,0.30
2022-08-03T15:30:07.498Z,0.30
2022-08-03T15:32:35.793Z,0.40
2022-08-03T15:37:28.965Z,0.20
2022-08-03T15:39:59.370Z,0.20
2022-08-03T15:42:27.705Z,0.20
2022-08-03T15:44:55.077Z,0.30
2022-08-03T15:47:22.079Z,0.30
2022-08-03T15:49:48.929Z,0.50
2022-08-03T15:52:15.500Z,0.40
2022-08-03T15:54:42.144Z,0.50
2022-08-03T15:57:09.059Z,0.50
2022-08-03T15:59:35.737Z,0.40
2022-08-03T16:02:02.674Z,0.30
2022-08-03T16:04:29.233Z,0.40
2022-08-03T16:06:55.930Z,0.40
2022-08-03T16:09:23.574Z,0.35
2022-08-03T16:12:15.409Z,0.40
2022-08-03T16:14:52.696Z,0.30
2022-08-03T16:17:20.837Z,0.40
2022-08-03T16:19:47.735Z,0.40
2022-08-03T16:22:14.519Z,0.40
2022-08-03T16:24:41.426Z,0.50
2022-08-03T16:27:17.532Z,0.40
2022-08-03T16:29:54.743Z,0.20
2022-08-03T16:32:21.342Z,0.40
2022-08-03T16:34:48.239Z,0.30
2022-08-03T16:37:37.596Z,0.50
2022-08-03T16:40:02.515Z,0.40
2022-08-03T16:42:29.113Z,0.30
2022-08-03T16:44:55.716Z,0.40
2022-08-03T16:47:22.890Z,0.40
2022-08-03T16:49:54.994Z,0.50
2022-08-03T16:52:26.074Z,0.47
2022-08-03T16:54:53.977Z,0.40
2022-08-03T16:57:55.639Z,0.40
2022-08-03T17:00:34.395Z,0.40
2022-08-03T17:03:04.462Z,0.40
2022-08-03T17:05:46.904Z,0.40
2022-08-03T17:08:14.359Z,0.40
2022-08-03T17:10:44.494Z,0.40
2022-08-03T17:13:15.199Z,0.60
2022-08-03T17:15:58.174Z,0.60
2022-08-03T17:18:34.075Z,0.50
2022-08-03T17:21:06.397Z,0.50
2022-08-03T17:23:49.678Z,0.40
2022-08-03T17:26:21.925Z,0.63
2022-08-03T17:28:57.663Z,0.60
2022-08-03T17:31:31.172Z,0.45
2022-08-03T17:34:01.047Z,0.50
2022-08-03T17:36:47.519Z,0.70
2022-08-03T17:39:16.960Z,0.60
2022-08-03T17:44:39.933Z,0.57
2022-08-03T17:47:12.546Z,0.60
2022-08-03T17:49:46.961Z,0.70
2022-08-03T17:52:48.365Z,0.60
2022-08-03T17:55:56.383Z,0.40
2022-08-03T17:58:17.284Z,0.60
2022-08-03T18:02:02.718Z,0.50
2022-08-03T18:03:59.799Z,0.60
2022-08-03T18:06:31.007Z,0.50
2022-08-03T18:09:00.019Z,0.65
2022-08-03T18:11:35.565Z,0.70
2022-08-03T18:14:17.263Z,0.60
2022-08-03T18:16:46.187Z,0.60
2022-08-03T18:19:13.791Z,0.60
2022-08-03T18:22:03.250Z,1.00
2022-08-03T18:24:30.310Z,1.60
2022-08-03T18:26:58.450Z,1.23
2022-08-03T18:29:30.053Z,1.30
2022-08-03T18:32:05.291Z,1.30
2022-08-03T18:34:36.188Z,1.20
2022-08-03T18:37:08.540Z,1.30
2022-08-03T18:39:50.275Z,1.20
2022-08-03T18:42:20.383Z,1.00
2022-08-03T18:44:56.168Z,1.20
2022-08-03T18:47:57.047Z,1.30
2022-08-03T18:50:29.474Z,1.60
2022-08-03T18:53:16.460Z,1.40
2022-08-03T18:56:05.282Z,1.98
2022-08-03T18:58:51.435Z,2.65
2022-08-03T19:01:59.903Z,3.28
2022-08-03T19:04:34.468Z,2.93
2022-08-03T19:07:07.015Z,2.95
2022-08-03T19:09:40.577Z,2.00
2022-08-03T19:12:30.940Z,2.35
2022-08-03T19:15:05.316Z,2.20
2022-08-03T19:17:36.072Z,1.90
2022-08-03T19:20:08.505Z,1.90
2022-08-03T19:22:39.701Z,1.75
2022-08-03T19:25:12.425Z,1.90
2022-08-03T19:27:39.756Z,1.70
2022-08-03T19:30:21.770Z,1.80
2022-08-03T19:32:54.258Z,2.10
2022-08-03T19:35:52.120Z,2.00
2022-08-03T19:38:09.526Z,2.20
2022-08-03T19:40:42.082Z,2.13
2022-08-03T19:43:26.245Z,1.80
2022-08-03T19:46:07.197Z,2.28
2022-08-03T19:48:37.515Z,2.70
2022-08-03T19:51:12.162Z,2.08
2022-08-03T19:53:43.157Z,1.50
2022-08-03T19:56:14.273Z,1.80
2022-08-03T19:58:46.256Z,1.80
2022-08-03T20:01:21.555Z,1.58
2022-08-03T20:03:50.187Z,1.50
2022-08-03T20:06:19.805Z,1.92
2022-08-03T20:08:48.158Z,1.40
2022-08-03T20:11:18.239Z,1.60
2022-08-03T20:13:48.321Z,1.45
2022-08-03T20:16:15.331Z,1.40
2022-08-03T20:18:42.652Z,1.13
2022-08-03T20:21:14.820Z,1.20
2022-08-03T20:26:31.049Z,1.20
2022-08-03T20:29:09.258Z,1.10
2022-08-03T20:31:37.608Z,1.10
2022-08-03T20:34:06.533Z,1.10
2022-08-03T20:36:33.412Z,1.17
2022-08-03T20:39:00.503Z,1.10
2022-08-03T20:41:27.278Z,1.15
2022-08-03T20:43:54.360Z,1.10
2022-08-03T20:46:33.838Z,1.30
2022-08-03T20:49:08.525Z,1.30
2022-08-03T20:51:52.765Z,1.48
2022-08-03T20:54:29.423Z,1.15
2022-08-03T20:57:00.685Z,1.40
2022-08-03T20:59:46.838Z,1.40
2022-08-03T21:02:19.575Z,1.30
2022-08-03T21:04:55.988Z,1.10
2022-08-03T21:07:24.010Z,1.00
2022-08-03T21:09:52.692Z,1.00
2022-08-03T21:12:32.975Z,1.10
2022-08-03T21:12:54.737Z,0.50
2022-08-03T21:13:13.048Z,1.20
2022-08-03T21:15:03.755Z,1.05
2022-08-03T21:17:40.828Z,1.10
2022-08-03T21:20:10.288Z,1.00
2022-08-03T21:22:45.307Z,1.00
2022-08-03T21:25:15.763Z,1.20
2022-08-03T21:27:42.872Z,1.20
2022-08-03T21:30:11.167Z,1.20
2022-08-03T21:32:40.799Z,1.10
2022-08-03T21:35:10.634Z,1.00
2022-08-03T21:40:05.016Z,0.90
2022-08-03T21:42:31.645Z,1.00
2022-08-03T21:44:58.310Z,0.93
2022-08-03T21:47:25.521Z,0.93
2022-08-03T21:50:07.567Z,1.08
2022-08-03T21:52:41.947Z,0.85
2022-08-03T21:55:09.105Z,0.90
2022-08-03T21:57:51.360Z,1.02
2022-08-03T22:00:20.304Z,1.10
2022-08-03T22:02:56.052Z,1.00
2022-08-03T22:05:42.618Z,1.00
2022-08-03T22:08:13.337Z,1.10
2022-08-03T22:10:40.877Z,1.10
2022-08-03T22:13:07.623Z,1.10
2022-08-03T22:15:34.570Z,0.90
2022-08-03T22:18:04.474Z,0.90
2022-08-03T22:20:31.363Z,1.00
2022-08-03T22:23:02.149Z,0.90
2022-08-03T22:25:32.497Z,1.00
2022-08-03T22:28:03.066Z,0.88
2022-08-03T22:30:29.833Z,1.00
2022-08-03T22:32:57.946Z,1.00
2022-08-03T22:35:27.477Z,1.15
2022-08-03T22:37:57.239Z,1.00
2022-08-03T22:40:24.057Z,1.00
2022-08-03T22:42:52.328Z,1.20
2022-08-03T22:46:06.296Z,1.13
2022-08-03T22:48:08.082Z,1.20
2022-08-03T22:50:35.070Z,1.27
2022-08-03T22:53:01.808Z,1.10
2022-08-03T22:55:28.594Z,1.20
2022-08-03T22:57:55.734Z,1.10
2022-08-03T23:00:23.629Z,1.20
2022-08-03T23:02:53.773Z,1.20
2022-08-03T23:06:00.840Z,1.10
2022-08-03T23:08:15.383Z,1.20
2022-08-03T23:10:46.766Z,1.20
2022-08-03T23:13:16.458Z,1.20
2022-08-03T23:15:50.793Z,1.20
2022-08-03T23:18:20.861Z,1.20
2022-08-03T23:20:51.449Z,1.30
2022-08-03T23:23:19.944Z,1.20
2022-08-03T23:25:49.685Z,1.20
2022-08-03T23:28:17.353Z,1.20
2022-08-03T23:30:44.738Z,1.10
2022-08-03T23:33:15.991Z,1.27
2022-08-03T23:36:28.182Z,0.95
2022-08-03T23:38:46.232Z,1.10
2022-08-03T23:41:14.808Z,0.90
2022-08-03T23:43:52.449Z,1.00
2022-08-03T23:46:27.404Z,0.93
2022-08-03T23:48:56.399Z,1.00
2022-08-03T23:51:45.383Z,1.02
2022-08-03T23:54:37.760Z,1.10
2022-08-03T23:57:16.446Z,1.10
